This is the latest recevied weather packets stored in our database for station/object DM1HF-13. If no packets are shown the sender has not sent any weather packets the latest 1 day(s).
| Time | Temp. | Humidity | Pressure | Rain* | Wind** | Luminosity | Snow |
|---|---|---|---|---|---|---|---|
| 1778019617 | 13.89° C | 92% | 1007.4 hPa | 13.21 mm | - | 0 W/m² | - |
| 1778019317 | 13.89° C | 91% | 1007.5 hPa | 7.11 mm | - | 0 W/m² | - |
| 1778019017 | 13.89° C | 92% | 1007.6 hPa | 7.62 mm | - | 0 W/m² | - |
| 1778018717 | 13.89° C | 92% | 1007.7 hPa | 12.19 mm | - | 0 W/m² | - |
| 1778017817 | 14.44° C | 91% | 1007.9 hPa | 5.08 mm | - | 0 W/m² | - |
| 1778016017 | 15° C | 86% | 1008.3 hPa | 8.89 mm | - | 0 W/m² | - |
| 1778015717 | 15° C | 87% | 1008.4 hPa | 7.11 mm | - | 0 W/m² | - |
| 1778012717 | 16.11° C | 76% | 1008.3 hPa | 2.29 mm | - | 0 W/m² | - |
| 1778012417 | 16.11° C | 75% | 1008.2 hPa | 0 mm | - | 0 W/m² | - |
| 1778012117 | 16.11° C | 75% | 1008 hPa | 0 mm | - | 0 W/m² | - |
| 1778010617 | 16.67° C | 74% | 1007.6 hPa | 0 mm | - | 0 W/m² | - |
| 1778009717 | 16.67° C | 74% | 1007.3 hPa | 0 mm | - | 0 W/m² | - |
| 1778008517 | 16.67° C | 75% | 1007.6 hPa | 0 mm | - | 0 W/m² | - |
| 1778007017 | 17.22° C | 74% | 1007.7 hPa | 0 mm | - | 0 W/m² | - |
| 1778004917 | 17.22° C | 73% | 1007.9 hPa | 0 mm | - | 2 W/m² | - |
| 1778001317 | 18.33° C | 67% | 1008.1 hPa | 0 mm | - | 16 W/m² | - |
| 1777999817 | 18.89° C | 64% | 1008.3 hPa | 0 mm | - | 37 W/m² | - |
| 1777999217 | 18.89° C | 65% | 1008.3 hPa | 0 mm | - | 46 W/m² | - |
| 1777997717 | 19.44° C | 65% | 1008.4 hPa | 0 mm | - | 53 W/m² | - |
| 1777995917 | 19.44° C | 66% | 1008.7 hPa | 0 mm | - | 73 W/m² | - |
* Rain latest hour (hover to see other rain measurements)
** Current wind speed in m/s (hover to see current wind gust speed)